createdAt,value
2017-12-20T00:00:36.216Z,102288.66
2017-12-20T00:03:08.710Z,102282.22
2017-12-20T00:05:41.219Z,102290.36
2017-12-20T00:08:13.726Z,102285.34
2017-12-20T00:10:46.235Z,102282.83
2017-12-20T00:13:19.517Z,102279.88
2017-12-20T00:15:53.927Z,102281.55
2017-12-20T00:18:27.502Z,102285.80
2017-12-20T00:21:00.306Z,102285.02
2017-12-20T00:23:32.993Z,102280.61
2017-12-20T00:26:05.939Z,102281.30
2017-12-20T00:28:38.449Z,102286.70
2017-12-20T00:31:10.977Z,102285.85
2017-12-20T00:33:43.487Z,102283.30
2017-12-20T00:36:16.048Z,102286.02
2017-12-20T00:38:50.391Z,102291.08
2017-12-20T00:41:25.769Z,102297.78
2017-12-20T00:43:58.935Z,102297.53
2017-12-20T00:46:31.760Z,102298.20
2017-12-20T00:49:04.736Z,102297.70
2017-12-20T00:51:37.790Z,102305.48
2017-12-20T00:54:10.398Z,102301.83
2017-12-20T00:56:42.907Z,102305.32
2017-12-20T00:59:15.438Z,102301.28
2017-12-20T01:01:47.952Z,102303.48
2017-12-20T01:04:25.931Z,102307.84
2017-12-20T01:06:59.501Z,102301.28
2017-12-20T01:09:32.159Z,102300.95
2017-12-20T01:12:04.999Z,102308.72
2017-12-20T01:14:37.803Z,102311.80
2017-12-20T01:17:10.342Z,102309.59
2017-12-20T01:19:42.846Z,102306.72
2017-12-20T01:22:15.376Z,102300.38
2017-12-20T01:24:47.875Z,102298.67
2017-12-20T01:27:22.830Z,102300.44
2017-12-20T01:29:57.932Z,102304.78
2017-12-20T01:32:30.631Z,102303.59
2017-12-20T01:35:03.441Z,102308.19
2017-12-20T01:37:36.003Z,102311.06
2017-12-20T01:40:08.805Z,102311.06
2017-12-20T01:42:41.323Z,102307.86
2017-12-20T01:45:13.812Z,102304.11
2017-12-20T01:47:46.317Z,102310.46
2017-12-20T01:50:19.913Z,102304.13
2017-12-20T01:52:57.447Z,102303.20
2017-12-20T01:55:30.158Z,102296.61
2017-12-20T01:58:03.029Z,102292.61
2017-12-20T02:00:35.894Z,102300.92
2017-12-20T02:03:08.881Z,102304.71
2017-12-20T02:05:41.731Z,102305.18
2017-12-20T02:08:14.252Z,102300.98
2017-12-20T02:10:46.787Z,102306.80
2017-12-20T02:13:21.556Z,102309.09
2017-12-20T02:15:58.977Z,102304.92
2017-12-20T02:18:32.021Z,102303.84
2017-12-20T02:21:04.951Z,102294.08
2017-12-20T02:23:38.362Z,102306.00
2017-12-20T02:26:11.280Z,102302.28
2017-12-20T02:28:43.788Z,102303.64
2017-12-20T02:31:16.307Z,102300.03
2017-12-20T02:33:49.749Z,102296.55
2017-12-20T02:36:28.068Z,102289.61
2017-12-20T02:39:06.830Z,102289.11
2017-12-20T02:41:40.082Z,102282.77
2017-12-20T02:44:12.574Z,102283.42
2017-12-20T02:46:45.084Z,102280.91
2017-12-20T02:49:17.706Z,102276.78
2017-12-20T02:51:54.071Z,102279.45
2017-12-20T02:54:29.136Z,102281.64
2017-12-20T02:57:02.276Z,102284.68
2017-12-20T02:59:35.490Z,102283.45
2017-12-20T03:02:08.154Z,102277.20
2017-12-20T03:04:41.507Z,102276.77
2017-12-20T03:07:14.028Z,102274.33
2017-12-20T03:09:46.518Z,102276.52
2017-12-20T03:12:21.621Z,102268.33
2017-12-20T03:14:55.834Z,102278.11
2017-12-20T03:17:29.570Z,102272.12
2017-12-20T03:20:02.773Z,102277.60
2017-12-20T03:22:36.038Z,102272.51
2017-12-20T03:25:09.497Z,102272.13
2017-12-20T03:27:42.308Z,102278.55
2017-12-20T03:30:14.808Z,102267.16
2017-12-20T03:32:47.323Z,102267.44
2017-12-20T03:35:21.975Z,102263.87
2017-12-20T03:37:56.544Z,102261.53
2017-12-20T03:40:29.783Z,102263.78
2017-12-20T03:43:02.933Z,102256.61
2017-12-20T03:45:35.636Z,102264.00
2017-12-20T03:48:08.257Z,102266.91
2017-12-20T03:50:40.749Z,102255.00
2017-12-20T03:53:13.268Z,102254.52
2017-12-20T03:55:45.758Z,102252.39
2017-12-20T03:58:18.899Z,102259.60
2017-12-20T04:00:52.790Z,102256.55
2017-12-20T04:03:27.056Z,102264.16
2017-12-20T04:05:59.896Z,102255.23
2017-12-20T04:08:33.378Z,102263.97
2017-12-20T04:11:06.570Z,102268.23
2017-12-20T04:13:39.825Z,102270.13
2017-12-20T04:16:12.573Z,102268.70
2017-12-20T04:18:45.076Z,102268.02
2017-12-20T04:21:17.589Z,102275.98
2017-12-20T04:23:52.269Z,102280.64
2017-12-20T04:26:27.724Z,102281.06
2017-12-20T04:29:01.080Z,102287.54
2017-12-20T04:31:34.026Z,102283.61
2017-12-20T04:34:06.789Z,102292.11
2017-12-20T04:36:39.332Z,102289.58
2017-12-20T04:39:11.980Z,102288.42
2017-12-20T04:41:44.504Z,102290.53
2017-12-20T04:44:17.258Z,102284.28
2017-12-20T04:46:50.694Z,102282.71
2017-12-20T04:49:23.420Z,102286.10
2017-12-20T04:51:56.007Z,102284.89
2017-12-20T04:54:28.486Z,102295.00
2017-12-20T04:57:01.118Z,102294.80
2017-12-20T04:59:33.860Z,102299.38
2017-12-20T05:02:06.643Z,102287.04
2017-12-20T05:04:39.988Z,102287.53
2017-12-20T05:07:12.564Z,102289.04
2017-12-20T05:09:45.052Z,102299.21
2017-12-20T05:12:17.570Z,102294.22
2017-12-20T05:14:56.556Z,102297.34
2017-12-20T05:17:29.925Z,102299.59
2017-12-20T05:20:02.750Z,102302.34
2017-12-20T05:22:37.705Z,102292.70
2017-12-20T05:25:10.896Z,102294.45
2017-12-20T05:27:43.439Z,102297.48
2017-12-20T05:30:16.006Z,102305.02
2017-12-20T05:32:48.585Z,102302.13
2017-12-20T05:35:25.190Z,102308.52
2017-12-20T05:38:00.025Z,102314.52
2017-12-20T05:40:33.510Z,102318.35
2017-12-20T05:43:06.093Z,102317.05
2017-12-20T05:45:39.258Z,102313.68
2017-12-20T05:48:11.782Z,102313.66
2017-12-20T05:50:44.294Z,102310.69
2017-12-20T05:53:16.817Z,102315.44
2017-12-20T05:55:49.828Z,102317.73
2017-12-20T05:58:24.028Z,102313.73
2017-12-20T06:04:10.199Z,102322.32
2017-12-20T06:06:42.745Z,102320.69
2017-12-20T06:09:19.566Z,102322.84
2017-12-20T06:11:52.160Z,102317.83
2017-12-20T06:14:24.928Z,102322.91
2017-12-20T06:17:15.170Z,102319.30
2017-12-20T06:19:47.694Z,102324.27
2017-12-20T06:22:32.487Z,102329.66
2017-12-20T06:25:05.514Z,102322.83
2017-12-20T06:27:39.702Z,102331.19
2017-12-20T06:30:12.508Z,102322.31
2017-12-20T06:32:45.106Z,102329.80
2017-12-20T06:35:17.616Z,102331.84
2017-12-20T06:37:55.134Z,102334.96
2017-12-20T06:40:33.171Z,102330.50
2017-12-20T06:43:05.826Z,102327.08
2017-12-20T06:45:45.213Z,102331.86
2017-12-20T06:48:18.006Z,102336.13
2017-12-20T06:50:57.251Z,102337.30
2017-12-20T06:53:42.729Z,102334.58
2017-12-20T06:56:16.111Z,102331.34
2017-12-20T06:58:49.179Z,102341.55
2017-12-20T07:01:29.682Z,102343.75
2017-12-20T07:04:06.461Z,102345.45
2017-12-20T07:06:41.531Z,102351.55
2017-12-20T07:09:14.139Z,102351.31
2017-12-20T07:11:46.704Z,102360.23
2017-12-20T07:14:28.244Z,102362.21
2017-12-20T07:17:06.564Z,102365.44
2017-12-20T07:19:40.189Z,102359.16
2017-12-20T07:22:12.814Z,102367.97
2017-12-20T07:24:45.319Z,102364.90
2017-12-20T07:27:17.838Z,102378.06
2017-12-20T07:29:58.046Z,102372.95
2017-12-20T07:35:17.631Z,102383.52
2017-12-20T07:37:50.731Z,102376.00
2017-12-20T07:40:23.305Z,102383.94
2017-12-20T07:43:11.058Z,102379.94
2017-12-20T07:45:43.558Z,102378.66
2017-12-20T07:48:30.363Z,102384.04
2017-12-20T07:51:03.412Z,102379.48
2017-12-20T07:53:41.107Z,102375.31
2017-12-20T07:56:13.646Z,102380.66
2017-12-20T07:58:47.261Z,102377.71
2017-12-20T08:01:29.923Z,102378.73
2017-12-20T08:04:23.631Z,102377.46
2017-12-20T08:07:02.196Z,102375.56
2017-12-20T08:09:38.963Z,102384.25
2017-12-20T08:12:12.543Z,102382.97
2017-12-20T08:14:45.074Z,102391.78
2017-12-20T08:17:17.680Z,102389.23
2017-12-20T08:20:01.525Z,102393.86
2017-12-20T08:22:36.629Z,102393.95
2017-12-20T08:25:09.204Z,102395.36
2017-12-20T08:27:41.720Z,102391.73
2017-12-20T08:30:14.476Z,102403.94
2017-12-20T08:32:46.987Z,102406.86
2017-12-20T08:35:20.478Z,102408.97
2017-12-20T08:37:55.361Z,102410.58
2017-12-20T08:40:29.795Z,102409.09
2017-12-20T08:43:05.093Z,102407.50
2017-12-20T08:45:40.092Z,102402.33
2017-12-20T08:48:12.638Z,102406.17
2017-12-20T08:50:45.125Z,102409.98
2017-12-20T08:53:17.651Z,102413.16
2017-12-20T08:55:55.376Z,102414.52
2017-12-20T09:01:12.685Z,102417.65
2017-12-20T09:03:45.216Z,102420.34
2017-12-20T09:06:17.810Z,102414.03
2017-12-20T09:08:56.545Z,102411.70
2017-12-20T09:11:31.166Z,102417.91
2017-12-20T09:14:06.993Z,102415.45
2017-12-20T09:16:40.146Z,102412.54
2017-12-20T09:19:12.675Z,102406.20
2017-12-20T09:21:45.180Z,102408.89
2017-12-20T09:24:17.990Z,102408.88
2017-12-20T09:26:59.546Z,102412.40
2017-12-20T09:29:33.450Z,102404.84
2017-12-20T09:32:08.687Z,102406.63
2017-12-20T09:34:41.222Z,102392.33
2017-12-20T09:37:13.707Z,102398.51
2017-12-20T09:39:46.226Z,102397.23
2017-12-20T09:42:18.811Z,102394.53
2017-12-20T09:44:51.975Z,102398.80
2017-12-20T09:47:24.557Z,102402.59
2017-12-20T09:50:00.129Z,102400.06
2017-12-20T09:52:32.748Z,102391.93
2017-12-20T09:55:08.810Z,102394.30
2017-12-20T09:57:41.332Z,102390.72
2017-12-20T10:00:14.095Z,102398.94
2017-12-20T10:02:46.607Z,102395.14
2017-12-20T10:05:20.840Z,102390.47
2017-12-20T10:07:53.422Z,102394.29
2017-12-20T10:10:26.034Z,102393.44
2017-12-20T10:12:58.552Z,102394.50
2017-12-20T10:15:31.045Z,102394.08
2017-12-20T10:18:08.727Z,102392.55
2017-12-20T10:20:41.270Z,102387.65
2017-12-20T10:23:13.793Z,102389.58
2017-12-20T10:25:46.295Z,102388.96
2017-12-20T10:28:20.736Z,102392.27
2017-12-20T10:31:01.022Z,102388.39
2017-12-20T10:33:33.656Z,102397.89
2017-12-20T10:36:07.249Z,102399.40
2017-12-20T10:38:40.541Z,102396.55
2017-12-20T10:41:13.027Z,102394.05
2017-12-20T10:43:45.530Z,102397.36
2017-12-20T10:46:18.187Z,102388.83
2017-12-20T10:48:51.445Z,102388.41
2017-12-20T10:51:28.321Z,102393.14
2017-12-20T10:54:01.655Z,102396.20
2017-12-20T10:56:34.234Z,102394.27
2017-12-20T10:59:06.743Z,102388.83
2017-12-20T11:01:40.001Z,102389.67
2017-12-20T11:04:12.602Z,102389.01
2017-12-20T11:06:45.194Z,102397.14
2017-12-20T11:09:17.714Z,102389.81
2017-12-20T11:11:51.805Z,102394.77
2017-12-20T11:14:24.358Z,102397.91
2017-12-20T11:16:58.648Z,102389.64
2017-12-20T11:19:31.528Z,102389.92
2017-12-20T11:22:04.029Z,102391.62
2017-12-20T11:24:36.582Z,102384.16
2017-12-20T11:27:09.064Z,102387.52
2017-12-20T11:29:41.587Z,102383.61
2017-12-20T11:32:14.993Z,102380.80
2017-12-20T11:34:47.538Z,102379.48
2017-12-20T11:37:21.159Z,102376.74
2017-12-20T11:39:57.413Z,102372.34
2017-12-20T11:42:34.832Z,102370.16
2017-12-20T11:45:07.617Z,102371.91
2017-12-20T11:47:40.378Z,102361.64
2017-12-20T11:50:15.009Z,102361.29
2017-12-20T11:52:47.499Z,102362.72
2017-12-20T11:55:20.872Z,102355.58
2017-12-20T11:57:57.813Z,102356.69
2017-12-20T12:00:30.385Z,102360.70
2017-12-20T12:03:02.884Z,102359.17
2017-12-20T12:05:37.458Z,102359.31
2017-12-20T12:08:10.045Z,102352.31
2017-12-20T12:10:42.597Z,102345.18
2017-12-20T12:13:15.122Z,102349.67
2017-12-20T12:15:47.702Z,102340.50
2017-12-20T12:18:26.500Z,102340.69
2017-12-20T12:21:01.023Z,102338.36
2017-12-20T12:23:33.850Z,102337.22
2017-12-20T12:26:06.394Z,102337.04
2017-12-20T12:28:38.979Z,102336.23
2017-12-20T12:31:11.579Z,102333.75
2017-12-20T12:33:44.091Z,102337.70
2017-12-20T12:36:16.592Z,102337.23
2017-12-20T12:38:49.298Z,102340.81
2017-12-20T12:41:21.807Z,102341.38
2017-12-20T12:43:58.079Z,102338.94
2017-12-20T12:46:30.582Z,102333.88
2017-12-20T12:49:03.286Z,102330.25
2017-12-20T12:51:35.823Z,102335.88
2017-12-20T12:54:08.507Z,102332.48
2017-12-20T12:56:41.030Z,102335.58
2017-12-20T12:59:13.539Z,102330.38
2017-12-20T13:01:46.101Z,102335.58
2017-12-20T13:04:18.774Z,102325.83
2017-12-20T13:06:51.870Z,102322.34
2017-12-20T13:09:24.447Z,102318.98
2017-12-20T13:11:56.975Z,102320.50
2017-12-20T13:14:29.774Z,102320.12
2017-12-20T13:17:02.312Z,102318.73
2017-12-20T13:19:34.943Z,102314.86
2017-12-20T13:22:07.481Z,102318.84
2017-12-20T13:24:40.102Z,102317.19
2017-12-20T13:27:14.886Z,102318.95
2017-12-20T13:29:47.416Z,102320.28
2017-12-20T13:32:20.110Z,102320.39
2017-12-20T13:34:52.662Z,102325.37
2017-12-20T13:37:26.015Z,102318.59
2017-12-20T13:39:58.889Z,102312.11
2017-12-20T13:42:31.851Z,102311.73
2017-12-20T13:45:04.457Z,102307.00
2017-12-20T13:47:37.087Z,102309.08
2017-12-20T13:50:09.665Z,102309.59
2017-12-20T13:52:42.207Z,102322.80
2017-12-20T13:55:14.935Z,102334.80
2017-12-20T13:57:47.553Z,102329.79
2017-12-20T14:00:20.486Z,102322.30
2017-12-20T14:02:53.093Z,102320.64
2017-12-20T14:05:33.672Z,102318.83
2017-12-20T14:08:06.160Z,102319.77
2017-12-20T14:10:38.777Z,102319.26
2017-12-20T14:13:11.330Z,102318.43
2017-12-20T14:15:43.811Z,102327.75
2017-12-20T14:18:16.370Z,102326.10
2017-12-20T14:20:49.794Z,102328.58
2017-12-20T14:23:24.921Z,102332.39
2017-12-20T14:25:57.680Z,102328.88
2017-12-20T14:28:30.250Z,102335.45
2017-12-20T14:31:03.336Z,102337.07
2017-12-20T14:33:36.043Z,102329.07
2017-12-20T14:36:08.559Z,102325.19
2017-12-20T14:38:41.107Z,102321.45
2017-12-20T14:41:13.827Z,102323.84
2017-12-20T14:43:46.368Z,102321.45
2017-12-20T14:46:19.160Z,102310.86
2017-12-20T14:48:52.747Z,102310.00
2017-12-20T14:51:26.430Z,102317.98
2017-12-20T14:53:59.179Z,102323.06
2017-12-20T14:56:31.910Z,102318.49
2017-12-20T14:59:04.553Z,102317.58
2017-12-20T15:01:37.062Z,102326.61
2017-12-20T15:04:09.633Z,102320.33
2017-12-20T15:06:42.186Z,102325.62
2017-12-20T15:09:14.750Z,102312.55
2017-12-20T15:11:47.356Z,102312.00
2017-12-20T15:14:21.228Z,102318.62
2017-12-20T15:16:54.498Z,102327.41
2017-12-20T15:19:27.584Z,102332.20
2017-12-20T15:22:00.297Z,102336.72
2017-12-20T15:24:33.172Z,102336.48
2017-12-20T15:27:07.723Z,102338.61
2017-12-20T15:29:40.336Z,102333.81
2017-12-20T15:32:12.961Z,102324.00
2017-12-20T15:34:45.591Z,102314.51
2017-12-20T15:37:19.744Z,102310.20
2017-12-20T15:39:53.941Z,102304.17
2017-12-20T15:42:26.937Z,102307.22
2017-12-20T15:45:02.831Z,102304.27
2017-12-20T15:47:36.469Z,102313.45
2017-12-20T15:50:08.982Z,102325.09
2017-12-20T15:52:41.506Z,102332.53
2017-12-20T15:55:14.040Z,102339.24
2017-12-20T15:57:47.677Z,102347.23
2017-12-20T16:00:21.985Z,102342.49
2017-12-20T16:02:54.551Z,102352.37
2017-12-20T16:05:27.710Z,102351.67
2017-12-20T16:08:00.275Z,102360.08
2017-12-20T16:10:32.824Z,102353.70
2017-12-20T16:13:05.306Z,102355.27
2017-12-20T16:15:37.824Z,102359.33
2017-12-20T16:18:10.526Z,102354.59
2017-12-20T16:20:43.043Z,102351.18
2017-12-20T16:23:17.074Z,102346.38
2017-12-20T16:26:01.494Z,102340.12
2017-12-20T16:28:34.793Z,102336.55
2017-12-20T16:31:07.817Z,102337.48
2017-12-20T16:33:40.525Z,102336.03
2017-12-20T16:36:13.083Z,102329.41
2017-12-20T16:38:45.602Z,102331.05
2017-12-20T16:41:19.135Z,102326.66
2017-12-20T16:43:55.584Z,102326.94
2017-12-20T16:46:28.180Z,102330.91
2017-12-20T16:49:01.146Z,102332.39
2017-12-20T16:51:34.200Z,102338.83
2017-12-20T16:54:06.808Z,102340.74
2017-12-20T16:56:39.514Z,102341.14
2017-12-20T16:59:12.034Z,102338.60
2017-12-20T17:01:44.626Z,102332.34
2017-12-20T17:04:20.409Z,102333.09
2017-12-20T17:06:54.471Z,102341.71
2017-12-20T17:09:27.451Z,102332.34
2017-12-20T17:12:01.366Z,102325.61
2017-12-20T17:14:34.185Z,102320.19
2017-12-20T17:17:06.875Z,102318.50
2017-12-20T17:19:39.452Z,102322.45
2017-12-20T17:22:11.951Z,102316.52
2017-12-20T17:24:44.522Z,102321.23
2017-12-20T17:27:17.035Z,102333.89
2017-12-20T17:29:50.601Z,102338.98
2017-12-20T17:32:25.147Z,102335.00
2017-12-20T17:34:57.766Z,102332.85
2017-12-20T17:37:30.271Z,102328.98
2017-12-20T17:40:02.788Z,102319.92
2017-12-20T17:42:35.363Z,102324.02
2017-12-20T17:45:07.883Z,102330.80
2017-12-20T17:47:40.383Z,102331.86
2017-12-20T17:50:12.958Z,102332.73
2017-12-20T17:52:45.455Z,102326.58
2017-12-20T17:55:17.959Z,102329.92
2017-12-20T17:57:50.546Z,102326.95
2017-12-20T18:00:23.108Z,102330.14
2017-12-20T18:02:57.097Z,102330.89
2017-12-20T18:05:31.558Z,102324.13
2017-12-20T18:08:04.276Z,102334.09
2017-12-20T18:10:36.802Z,102335.36
2017-12-20T18:13:09.431Z,102344.06
2017-12-20T18:15:43.052Z,102335.59
2017-12-20T18:18:16.595Z,102343.91
2017-12-20T18:20:52.187Z,102348.09
2017-12-20T18:23:25.961Z,102349.55
2017-12-20T18:25:58.593Z,102345.44
2017-12-20T18:28:31.091Z,102341.45
2017-12-20T18:31:03.642Z,102332.98
2017-12-20T18:33:36.156Z,102331.69
2017-12-20T18:36:09.080Z,102332.19
2017-12-20T18:38:41.663Z,102329.64
2017-12-20T18:41:14.187Z,102334.72
2017-12-20T18:43:46.700Z,102329.72
2017-12-20T18:46:20.574Z,102325.42
2017-12-20T18:48:54.514Z,102328.39
2017-12-20T18:51:27.097Z,102329.31
2017-12-20T18:53:59.596Z,102326.62
2017-12-20T18:56:32.731Z,102326.70
2017-12-20T18:59:05.310Z,102322.50
2017-12-20T19:01:37.896Z,102325.55
2017-12-20T19:04:10.387Z,102326.41
2017-12-20T19:06:42.905Z,102318.28
2017-12-20T19:09:15.405Z,102318.71
2017-12-20T19:11:50.075Z,102315.45
2017-12-20T19:14:26.159Z,102313.11
2017-12-20T19:16:59.101Z,102308.61
2017-12-20T19:19:32.312Z,102310.21
2017-12-20T19:22:04.841Z,102311.56
2017-12-20T19:24:40.333Z,102315.81
2017-12-20T19:27:12.972Z,102318.27
2017-12-20T19:29:45.478Z,102311.52
2017-12-20T19:32:18.304Z,102301.34
2017-12-20T19:34:51.913Z,102304.36
2017-12-20T19:37:25.933Z,102313.40
2017-12-20T19:39:58.769Z,102321.44
2017-12-20T19:42:31.307Z,102314.31
2017-12-20T19:45:03.878Z,102316.02
2017-12-20T19:47:36.390Z,102303.66
2017-12-20T19:50:08.906Z,102315.66
2017-12-20T19:52:41.517Z,102311.55
2017-12-20T19:55:14.006Z,102316.16
2017-12-20T19:57:46.526Z,102312.75
2017-12-20T20:00:19.430Z,102311.91
2017-12-20T20:02:55.291Z,102318.97
2017-12-20T20:05:27.830Z,102319.27
2017-12-20T20:08:00.351Z,102315.47
2017-12-20T20:10:32.858Z,102313.40
2017-12-20T20:13:05.938Z,102321.09
2017-12-20T20:15:38.494Z,102311.77
2017-12-20T20:18:13.617Z,102308.37
2017-12-20T20:20:46.503Z,102298.20
2017-12-20T20:23:19.034Z,102289.17
2017-12-20T20:25:51.688Z,102281.95
2017-12-20T20:28:24.244Z,102273.77
2017-12-20T20:30:56.894Z,102281.05
2017-12-20T20:33:29.537Z,102286.27
2017-12-20T20:36:02.682Z,102291.44
2017-12-20T20:38:35.738Z,102294.33
2017-12-20T20:41:08.264Z,102293.12
2017-12-20T20:43:40.799Z,102307.11
2017-12-20T20:46:13.385Z,102309.71
2017-12-20T20:48:45.875Z,102318.20
2017-12-20T20:51:20.616Z,102311.91
2017-12-20T20:53:53.241Z,102306.03
2017-12-20T20:56:25.829Z,102307.80
2017-12-20T20:58:58.351Z,102304.17
2017-12-20T21:01:31.478Z,102293.88
2017-12-20T21:04:04.027Z,102273.58
2017-12-20T21:06:36.564Z,102257.76
2017-12-20T21:09:09.674Z,102259.41
2017-12-20T21:11:43.325Z,102282.73
2017-12-20T21:14:17.907Z,102277.06
2017-12-20T21:16:50.453Z,102274.69
2017-12-20T21:19:22.957Z,102258.88
2017-12-20T21:21:56.303Z,102268.25
2017-12-20T21:24:28.867Z,102278.52
2017-12-20T21:27:01.497Z,102286.97
2017-12-20T21:29:34.015Z,102284.08
2017-12-20T21:32:08.083Z,102275.13
2017-12-20T21:34:41.290Z,102275.48
2017-12-20T21:37:14.448Z,102267.84
2017-12-20T21:39:47.354Z,102262.34
2017-12-20T21:42:22.039Z,102260.08
2017-12-20T21:44:55.085Z,102269.19
2017-12-20T21:47:30.088Z,102281.34
2017-12-20T21:50:04.047Z,102286.97
2017-12-20T21:52:36.720Z,102291.14
2017-12-20T21:55:09.249Z,102290.73
2017-12-20T21:57:42.217Z,102296.30
2017-12-20T22:00:15.517Z,102298.78
2017-12-20T22:02:48.132Z,102294.59
2017-12-20T22:05:20.754Z,102292.99
2017-12-20T22:07:53.323Z,102291.16
2017-12-20T22:10:25.855Z,102290.23
2017-12-20T22:12:58.778Z,102287.75
2017-12-20T22:15:31.563Z,102281.61
2017-12-20T22:18:04.323Z,102278.67
2017-12-20T22:20:37.264Z,102271.11
2017-12-20T22:23:10.180Z,102280.84
2017-12-20T22:25:42.804Z,102271.80
2017-12-20T22:28:15.327Z,102277.31
2017-12-20T22:30:47.852Z,102282.53
2017-12-20T22:33:20.532Z,102287.15
2017-12-20T22:35:53.069Z,102293.92
2017-12-20T22:38:25.620Z,102289.62
2017-12-20T22:40:58.115Z,102289.61
2017-12-20T22:43:31.569Z,102297.39
2017-12-20T22:46:04.196Z,102291.88
2017-12-20T22:48:37.321Z,102302.52
2017-12-20T22:51:09.855Z,102305.92
2017-12-20T22:53:42.376Z,102314.06
2017-12-20T22:56:14.904Z,102312.41
2017-12-20T22:58:48.620Z,102303.95
2017-12-20T23:01:21.162Z,102291.28
2017-12-20T23:03:53.716Z,102291.72
2017-12-20T23:06:26.394Z,102297.73
2017-12-20T23:08:58.926Z,102294.38
2017-12-20T23:11:31.440Z,102284.88
2017-12-20T23:14:04.692Z,102281.83
2017-12-20T23:16:37.242Z,102282.67
2017-12-20T23:19:09.760Z,102294.27
2017-12-20T23:21:42.265Z,102291.30
2017-12-20T23:24:14.797Z,102287.91
2017-12-20T23:26:47.386Z,102278.85
2017-12-20T23:29:20.002Z,102274.34
2017-12-20T23:31:55.363Z,102270.87
2017-12-20T23:34:29.268Z,102262.50
2017-12-20T23:37:01.822Z,102246.46
2017-12-20T23:39:34.970Z,102247.81
2017-12-20T23:42:07.514Z,102253.72
2017-12-20T23:44:40.238Z,102262.62
2017-12-20T23:47:13.032Z,102265.30
2017-12-20T23:49:45.535Z,102270.04
2017-12-20T23:52:18.044Z,102270.53
2017-12-20T23:54:50.564Z,102267.08
2017-12-20T23:57:23.083Z,102262.52
2017-12-20T23:59:55.887Z,102261.16
